createdAt,value
2019-04-29T00:01:57.001Z,10.40
2019-04-29T00:06:02.710Z,10.34
2019-04-29T00:10:10.871Z,10.32
2019-04-29T00:14:16.800Z,10.27
2019-04-29T00:18:24.121Z,9.85
2019-04-29T00:22:29.788Z,9.75
2019-04-29T00:26:35.551Z,10.14
2019-04-29T00:30:41.447Z,10.21
2019-04-29T00:34:47.273Z,9.94
2019-04-29T00:39:12.577Z,9.82
2019-04-29T00:43:30.007Z,9.61
2019-04-29T00:47:35.772Z,9.71
2019-04-29T00:51:41.521Z,10.04
2019-04-29T00:55:48.894Z,10.28
2019-04-29T00:59:54.574Z,10.41
2019-04-29T01:04:00.321Z,10.22
2019-04-29T01:08:06.248Z,10.03
2019-04-29T01:12:11.956Z,9.95
2019-04-29T01:16:17.725Z,10.12
2019-04-29T01:20:24.450Z,10.19
2019-04-29T01:24:30.130Z,10.21
2019-04-29T01:28:37.440Z,10.27
2019-04-29T01:32:43.134Z,10.26
2019-04-29T01:36:48.825Z,10.09
2019-04-29T01:40:56.140Z,10.00
2019-04-29T01:45:01.889Z,9.94
2019-04-29T01:49:07.738Z,10.00
2019-04-29T01:53:13.413Z,9.90
2019-04-29T01:57:19.127Z,9.71
2019-04-29T02:01:25.044Z,9.73
2019-04-29T02:05:30.744Z,9.59
2019-04-29T02:09:38.051Z,9.36
2019-04-29T02:13:44.707Z,9.57
2019-04-29T02:17:50.388Z,9.91
2019-04-29T02:22:09.772Z,10.14
2019-04-29T02:26:15.460Z,9.92
2019-04-29T02:30:41.182Z,9.67
2019-04-29T02:34:46.867Z,9.69
2019-04-29T02:39:10.260Z,9.96
2019-04-29T02:43:17.721Z,10.06
2019-04-29T02:47:23.415Z,9.75
2019-04-29T02:51:48.333Z,9.54
2019-04-29T02:55:55.654Z,9.30
2019-04-29T03:00:03.213Z,9.58
2019-04-29T03:04:17.919Z,9.79
2019-04-29T03:08:24.058Z,9.59
2019-04-29T03:12:29.839Z,9.53
2019-04-29T03:16:35.726Z,9.52
2019-04-29T03:20:49.027Z,9.58
2019-04-29T03:24:55.757Z,9.72
2019-04-29T03:29:03.205Z,9.66
2019-04-29T03:33:08.884Z,9.40
2019-04-29T03:37:14.618Z,9.50
2019-04-29T03:41:20.311Z,9.44
2019-04-29T03:45:25.984Z,9.63
2019-04-29T03:49:31.745Z,9.35
2019-04-29T03:53:37.407Z,9.22
2019-04-29T03:57:43.090Z,8.96
2019-04-29T04:02:08.446Z,9.12
2019-04-29T04:06:15.771Z,9.24
2019-04-29T04:10:21.529Z,9.64
2019-04-29T04:14:28.180Z,9.81
2019-04-29T04:18:35.483Z,9.74
2019-04-29T04:22:48.214Z,9.45
2019-04-29T04:26:53.929Z,9.15
2019-04-29T04:30:59.604Z,9.21
2019-04-29T04:35:06.994Z,9.49
2019-04-29T04:39:12.723Z,9.63
2019-04-29T04:43:18.408Z,9.67
2019-04-29T04:47:24.090Z,9.67
2019-04-29T04:51:29.839Z,9.75
2019-04-29T04:55:38.360Z,9.91
2019-04-29T04:59:44.025Z,9.90
2019-04-29T05:03:50.685Z,9.97
2019-04-29T05:07:56.382Z,10.01
2019-04-29T05:12:02.091Z,10.06
2019-04-29T05:16:07.782Z,10.16
2019-04-29T05:20:13.693Z,10.14
2019-04-29T05:24:19.387Z,10.26
2019-04-29T05:28:25.186Z,10.28
2019-04-29T05:32:30.879Z,10.21
2019-04-29T05:36:39.345Z,10.27
2019-04-29T05:40:46.692Z,10.59
2019-04-29T05:44:56.922Z,10.67
2019-04-29T05:49:07.156Z,10.64
2019-04-29T05:53:16.409Z,10.75
2019-04-29T05:57:25.221Z,10.84
2019-04-29T06:01:31.502Z,10.91
2019-04-29T06:05:37.203Z,11.07
2019-04-29T06:09:42.892Z,11.21
2019-04-29T06:13:48.588Z,11.29
2019-04-29T06:17:54.428Z,11.37
2019-04-29T06:22:00.130Z,11.49
2019-04-29T06:26:05.821Z,11.45
2019-04-29T06:30:11.836Z,11.49
2019-04-29T06:34:18.491Z,11.68
2019-04-29T06:38:24.181Z,11.86
2019-04-29T06:42:29.864Z,12.08
2019-04-29T06:46:35.563Z,12.23
2019-04-29T06:50:41.322Z,12.27
2019-04-29T06:54:47.077Z,12.32
2019-04-29T06:58:52.835Z,12.26
2019-04-29T07:02:58.519Z,12.23
2019-04-29T07:07:04.349Z,12.26
2019-04-29T07:11:10.061Z,12.46
2019-04-29T07:15:15.942Z,12.63
2019-04-29T07:19:22.162Z,12.81
2019-04-29T07:23:29.058Z,13.26
2019-04-29T07:27:42.792Z,13.77
2019-04-29T07:31:42.241Z,13.98
2019-04-29T07:35:49.593Z,13.84
2019-04-29T07:39:55.396Z,13.94
2019-04-29T07:44:01.095Z,14.18
2019-04-29T07:48:07.736Z,14.34
2019-04-29T07:52:14.540Z,14.58
2019-04-29T07:56:20.967Z,14.48
2019-04-29T08:00:34.955Z,14.60
2019-04-29T08:04:40.646Z,14.94
2019-04-29T08:08:54.735Z,14.94
2019-04-29T08:12:55.963Z,14.72
2019-04-29T08:17:01.660Z,14.79
2019-04-29T08:21:10.300Z,14.89
2019-04-29T08:25:14.878Z,15.06
2019-04-29T08:29:20.564Z,15.39
2019-04-29T08:33:26.256Z,15.46
2019-04-29T08:37:31.941Z,15.42
2019-04-29T08:41:37.775Z,15.70
2019-04-29T08:45:47.781Z,15.90
2019-04-29T08:49:53.487Z,16.06
2019-04-29T08:53:59.152Z,16.25
2019-04-29T08:58:07.015Z,16.51
2019-04-29T09:02:12.424Z,16.66
2019-04-29T09:06:18.106Z,16.15
2019-04-29T09:10:23.888Z,16.65
2019-04-29T09:14:29.573Z,17.26
2019-04-29T09:18:35.264Z,17.42
2019-04-29T09:22:45.497Z,17.38
2019-04-29T09:26:53.793Z,17.40
2019-04-29T09:30:59.475Z,17.44
2019-04-29T09:35:05.846Z,18.08
2019-04-29T09:39:11.589Z,18.11
2019-04-29T09:43:25.622Z,18.10
2019-04-29T09:47:29.525Z,18.12
2019-04-29T09:51:36.277Z,18.04
2019-04-29T09:55:41.976Z,18.31
2019-04-29T09:59:51.792Z,18.71
2019-04-29T10:04:01.770Z,19.02
2019-04-29T10:08:07.738Z,19.18
2019-04-29T10:12:13.967Z,18.99
2019-04-29T10:16:31.691Z,19.17
2019-04-29T10:20:37.297Z,19.04
2019-04-29T10:24:43.061Z,18.34
2019-04-29T10:28:53.057Z,18.25
2019-04-29T10:32:58.836Z,18.52
2019-04-29T10:37:04.766Z,18.64
2019-04-29T10:41:19.441Z,18.43
2019-04-29T10:45:26.839Z,18.58
2019-04-29T10:49:34.853Z,18.46
2019-04-29T10:53:41.736Z,18.70
2019-04-29T10:57:49.629Z,18.93
2019-04-29T11:02:22.993Z,19.09
2019-04-29T11:06:31.334Z,19.28
2019-04-29T11:10:36.561Z,19.41
2019-04-29T11:14:42.393Z,19.37
2019-04-29T11:18:48.184Z,19.50
2019-04-29T11:22:59.441Z,19.61
2019-04-29T11:27:18.906Z,19.58
2019-04-29T11:31:24.803Z,19.09
2019-04-29T11:35:32.266Z,19.21
2019-04-29T11:39:38.119Z,19.29
2019-04-29T11:43:46.721Z,19.39
2019-04-29T11:47:51.611Z,19.44
2019-04-29T11:52:09.070Z,19.62
2019-04-29T11:56:04.997Z,19.58
2019-04-29T12:00:30.783Z,19.16
2019-04-29T12:04:43.773Z,18.73
2019-04-29T12:08:53.375Z,18.94
2019-04-29T12:12:58.731Z,19.11
2019-04-29T12:17:21.279Z,19.59
2019-04-29T12:21:28.601Z,19.62
2019-04-29T12:25:36.465Z,19.71
2019-04-29T12:29:41.668Z,19.60
2019-04-29T12:33:49.008Z,19.04
2019-04-29T12:37:56.337Z,18.42
2019-04-29T12:42:20.522Z,18.75
2019-04-29T12:46:26.036Z,18.46
2019-04-29T12:50:33.132Z,18.50
2019-04-29T12:54:42.114Z,19.05
2019-04-29T12:58:50.478Z,19.31
2019-04-29T13:02:59.830Z,18.72
2019-04-29T13:07:09.800Z,19.03
2019-04-29T13:11:19.033Z,18.79
2019-04-29T13:15:33.319Z,18.92
2019-04-29T13:19:40.304Z,19.02
2019-04-29T13:23:59.144Z,19.22
2019-04-29T13:27:56.096Z,19.45
2019-04-29T13:32:01.730Z,19.29
2019-04-29T13:36:09.298Z,19.27
2019-04-29T13:40:15.641Z,19.21
2019-04-29T13:44:21.388Z,18.88
2019-04-29T13:48:28.692Z,18.65
2019-04-29T13:52:34.396Z,18.38
2019-04-29T13:56:55.497Z,18.20
2019-04-29T14:00:47.247Z,18.20
2019-04-29T14:04:56.002Z,18.27
2019-04-29T14:09:03.955Z,18.18
2019-04-29T14:13:16.298Z,17.91
2019-04-29T14:17:26.475Z,17.83
2019-04-29T14:21:30.056Z,17.79
2019-04-29T14:25:33.212Z,17.71
2019-04-29T14:29:38.881Z,17.65
2019-04-29T14:33:48.654Z,17.78
2019-04-29T14:37:55.848Z,17.62
2019-04-29T14:42:03.354Z,17.62
2019-04-29T14:46:26.562Z,17.70
2019-04-29T14:50:32.407Z,17.67
2019-04-29T14:54:41.844Z,17.40
2019-04-29T14:58:45.631Z,17.41
2019-04-29T15:02:51.375Z,17.23
2019-04-29T15:06:57.117Z,17.32
2019-04-29T15:11:04.235Z,17.45
2019-04-29T15:15:16.859Z,17.14
2019-04-29T15:19:39.809Z,16.86
2019-04-29T15:23:47.210Z,16.82
2019-04-29T15:27:52.898Z,16.85
2019-04-29T15:31:58.608Z,16.93
2019-04-29T15:36:04.277Z,16.98
2019-04-29T15:40:10.543Z,16.86
2019-04-29T15:44:20.116Z,16.78
2019-04-29T15:48:23.584Z,16.73
2019-04-29T15:52:29.376Z,16.69
2019-04-29T15:56:38.548Z,16.64
2019-04-29T16:00:42.488Z,16.48
2019-04-29T16:04:55.610Z,16.44
2019-04-29T16:09:03.088Z,16.42
2019-04-29T16:13:14.902Z,16.30
2019-04-29T16:17:20.897Z,16.19
2019-04-29T16:21:32.174Z,16.11
2019-04-29T16:25:40.361Z,16.03
2019-04-29T16:29:46.229Z,16.15
2019-04-29T16:33:54.591Z,15.90
2019-04-29T16:37:56.432Z,15.72
2019-04-29T16:42:07.053Z,15.70
2019-04-29T16:46:14.470Z,15.49
2019-04-29T16:50:20.189Z,15.44
2019-04-29T16:54:28.441Z,15.37
2019-04-29T16:58:33.730Z,15.47
2019-04-29T17:08:09.231Z,15.20
2019-04-29T17:12:16.516Z,15.16
2019-04-29T17:16:23.894Z,15.07
2019-04-29T17:20:29.802Z,14.92
2019-04-29T17:24:35.495Z,14.87
2019-04-29T17:28:42.834Z,14.90
2019-04-29T17:32:50.854Z,14.88
2019-04-29T17:36:56.804Z,14.80
2019-04-29T17:41:02.560Z,14.77
2019-04-29T17:45:12.337Z,14.75
2019-04-29T17:49:18.167Z,14.65
2019-04-29T17:53:25.582Z,14.58
2019-04-29T17:57:34.070Z,14.40
2019-04-29T18:01:46.824Z,14.30
2019-04-29T18:06:05.472Z,14.24
2019-04-29T18:10:29.654Z,14.24
2019-04-29T18:14:39.098Z,14.19
2019-04-29T18:18:46.616Z,13.96
2019-04-29T18:23:11.196Z,13.87
2019-04-29T18:27:25.333Z,13.89
2019-04-29T18:31:31.890Z,13.85
2019-04-29T18:35:38.548Z,13.79
2019-04-29T18:39:44.235Z,13.71
2019-04-29T18:43:49.989Z,13.67
2019-04-29T18:47:55.687Z,13.25
2019-04-29T18:52:02.278Z,13.27
2019-04-29T18:56:08.973Z,13.37
2019-04-29T19:00:19.926Z,13.16
2019-04-29T19:04:25.920Z,13.18
2019-04-29T19:08:31.953Z,12.93
2019-04-29T19:12:39.370Z,12.55
2019-04-29T19:16:45.874Z,12.52
2019-04-29T19:20:52.736Z,12.37
2019-04-29T19:24:59.150Z,12.58
2019-04-29T19:29:06.242Z,12.44
2019-04-29T19:33:12.625Z,12.09
2019-04-29T19:37:18.400Z,12.00
2019-04-29T19:41:25.625Z,11.96
2019-04-29T19:45:31.799Z,11.93
2019-04-29T19:49:40.177Z,12.13
2019-04-29T19:53:49.149Z,12.07
2019-04-29T19:57:52.865Z,12.30
2019-04-29T20:02:05.383Z,12.11
2019-04-29T20:06:21.368Z,11.98
2019-04-29T20:10:21.918Z,11.87
2019-04-29T20:14:33.490Z,11.78
2019-04-29T20:18:40.442Z,11.67
2019-04-29T20:22:50.586Z,11.56
2019-04-29T20:26:52.203Z,11.66
2019-04-29T20:31:14.802Z,11.62
2019-04-29T20:35:08.879Z,11.87
2019-04-29T20:39:19.832Z,11.84
2019-04-29T20:43:25.948Z,11.75
2019-04-29T20:47:37.605Z,11.65
2019-04-29T20:51:48.631Z,11.36
2019-04-29T20:55:46.110Z,11.49
2019-04-29T20:59:51.994Z,11.47
2019-04-29T21:03:58.019Z,11.49
2019-04-29T21:08:14.049Z,11.53
2019-04-29T21:12:12.746Z,11.56
2019-04-29T21:16:22.839Z,11.43
2019-04-29T21:20:27.517Z,11.28
2019-04-29T21:24:35.174Z,11.39
2019-04-29T21:28:41.810Z,11.48
2019-04-29T21:32:48.288Z,11.78
2019-04-29T21:37:06.695Z,11.55
2019-04-29T21:41:20.307Z,11.50
2019-04-29T21:45:26.290Z,11.31
2019-04-29T21:49:43.310Z,11.26
2019-04-29T21:53:40.406Z,11.35
2019-04-29T21:57:46.174Z,11.48
2019-04-29T22:01:51.873Z,11.57
2019-04-29T22:06:00.183Z,11.67
2019-04-29T22:10:07.039Z,11.85
2019-04-29T22:14:14.059Z,11.94
2019-04-29T22:18:22.210Z,11.61
2019-04-29T22:22:30.667Z,11.43
2019-04-29T22:26:35.293Z,11.18
2019-04-29T22:30:41.113Z,11.29
2019-04-29T22:34:49.497Z,11.23
2019-04-29T22:38:55.827Z,11.14
2019-04-29T22:43:08.929Z,11.17
2019-04-29T22:47:10.718Z,11.21
2019-04-29T22:51:18.844Z,11.36
2019-04-29T22:55:25.317Z,11.76
2019-04-29T22:59:31.076Z,11.88
2019-04-29T23:03:37.516Z,11.73
2019-04-29T23:07:45.573Z,11.79
2019-04-29T23:11:52.309Z,12.00
2019-04-29T23:16:01.090Z,12.05
2019-04-29T23:20:28.819Z,12.05
2019-04-29T23:24:36.388Z,12.19
2019-04-29T23:28:42.123Z,12.19
2019-04-29T23:32:47.918Z,12.17
2019-04-29T23:36:53.600Z,12.12
2019-04-29T23:40:59.420Z,11.93
2019-04-29T23:45:06.578Z,11.83
2019-04-29T23:49:12.345Z,12.00
2019-04-29T23:53:20.747Z,12.23
2019-04-29T23:57:29.778Z,12.04
